Time;durP1;ratioP1;P1;durP2;ratioP2;P2;SDS_P1;SDS_P2;PMS_P1;PMS_P2;Temp;Humidity;BMP_temperature;BMP_pressure;BME280_temperature;BME280_humidity;BME280_pressure;Samples;Min_cycle;Max_cycle;Signal;HPM_P1;HPM_P2
2020/12/15 00:00:55;;;;;;;61.00;28.85;;;;;;;1.45;94.93;99453.52;1790062;80;21151;-69
2020/12/15 00:03:23;;;;;;;58.25;27.37;;;;;;;1.44;94.93;99454.70;1791682;79;21157;-68
2020/12/15 00:05:54;;;;;;;60.45;30.23;;;;;;;1.48;95.08;99464.26;1792148;80;21121;-68
2020/12/15 00:08:22;;;;;;;58.25;27.75;;;;;;;1.45;95.01;99458.98;1792396;80;21146;-68
2020/12/15 00:10:50;;;;;;;56.63;28.10;;;;;;;1.41;95.01;99457.95;1791982;80;21291;-69
2020/12/15 00:13:18;;;;;;;50.50;24.20;;;;;;;1.28;94.95;99464.42;1792148;80;21145;-68
2020/12/15 00:15:45;;;;;;;55.63;28.30;;;;;;;1.21;95.41;99463.59;1792317;80;21596;-69
2020/12/15 00:18:13;;;;;;;55.05;28.60;;;;;;;1.18;95.59;99457.08;1792049;80;21114;-68
2020/12/15 00:20:42;;;;;;;47.85;24.72;;;;;;;1.25;95.83;99459.17;1792031;80;21149;-69
2020/12/15 00:23:10;;;;;;;57.53;27.50;;;;;;;1.27;95.60;99460.11;1792054;80;21150;-69
2020/12/15 00:25:41;;;;;;;50.92;26.95;;;;;;;1.23;95.62;99462.02;1792273;80;21556;-68
2020/12/15 00:28:09;;;;;;;45.33;24.92;;;;;;;1.24;95.76;99460.81;1792293;80;21509;-67
2020/12/15 00:30:37;;;;;;;51.30;27.65;;;;;;;1.25;95.78;99460.45;1792134;80;21588;-69
2020/12/15 00:33:05;;;;;;;49.20;25.80;;;;;;;1.25;95.78;99460.45;1792315;80;21102;-69
2020/12/15 00:35:33;;;;;;;48.48;25.60;;;;;;;1.28;95.88;99463.16;1791173;80;21134;-67
2020/12/15 00:38:01;;;;;;;47.95;25.68;;;;;;;1.29;95.95;99464.89;1771543;81;21564;-67
2020/12/15 00:40:29;;;;;;;46.92;24.43;;;;;;;1.31;95.78;99470.95;1770500;81;21161;-69
2020/12/15 00:42:57;;;;;;;46.53;24.40;;;;;;;1.28;95.86;99469.52;1770560;81;21157;-69
2020/12/15 00:45:25;;;;;;;43.60;22.45;;;;;;;1.30;95.88;99464.12;1770537;81;21150;-67
2020/12/15 00:47:53;;;;;;;42.58;23.73;;;;;;;1.30;95.96;99470.48;1744424;81;21168;-68
2020/12/15 00:50:21;;;;;;;41.65;23.42;;;;;;;1.31;95.85;99469.67;1770310;81;21236;-69
2020/12/15 00:52:49;;;;;;;38.85;22.32;;;;;;;1.34;95.97;99476.20;1770317;81;21169;-68
2020/12/15 00:55:17;;;;;;;43.30;22.37;;;;;;;1.33;95.88;99476.13;1771437;81;21441;-67
2020/12/15 00:57:45;;;;;;;43.68;21.97;;;;;;;1.33;95.75;99479.54;1770426;81;21142;-67
2020/12/15 01:00:13;;;;;;;44.55;22.30;;;;;;;1.24;95.82;99482.42;1770518;81;21153;-68
2020/12/15 01:02:41;;;;;;;37.88;20.65;;;;;;;1.19;95.86;99485.11;1780827;79;21169;-67
2020/12/15 01:05:11;;;;;;;43.00;23.77;;;;;;;1.20;96.11;99480.92;1800540;80;21157;-67
2020/12/15 01:07:40;;;;;;;45.03;24.18;;;;;;;1.22;96.18;99478.05;1800367;80;21153;-67
2020/12/15 01:10:08;;;;;;;44.45;23.67;;;;;;;1.26;96.18;99473.22;1800363;80;21157;-68
2020/12/15 01:12:38;;;;;;;43.13;22.82;;;;;;;1.21;96.13;99464.47;1800568;80;21189;-67
2020/12/15 01:15:08;;;;;;;42.23;22.02;;;;;;;1.26;96.34;99467.27;1800260;80;21141;-67
2020/12/15 01:17:36;;;;;;;39.38;22.22;;;;;;;1.30;96.27;99467.94;1800354;80;21157;-68
2020/12/15 01:20:05;;;;;;;35.95;19.85;;;;;;;1.32;96.12;99475.23;1800571;80;21165;-69
2020/12/15 01:22:34;;;;;;;41.05;22.15;;;;;;;1.32;96.10;99472.69;1800680;80;21157;-68
2020/12/15 01:25:03;;;;;;;38.13;21.60;;;;;;;1.31;95.98;99472.22;1800290;80;21157;-68
2020/12/15 01:27:34;;;;;;;38.88;21.68;;;;;;;1.35;96.21;99474.16;1799762;80;21153;-68
2020/12/15 01:30:04;;;;;;;41.18;22.10;;;;;;;1.38;96.05;99473.05;1800104;80;21576;-69
2020/12/15 01:32:51;;;;;;;41.02;23.15;;;;;;;1.41;96.05;99475.75;1800467;80;21105;-67
2020/12/15 01:35:21;;;;;;;49.90;25.75;;;;;;;1.44;96.03;99473.37;1800162;80;21137;-69
2020/12/15 01:37:50;;;;;;;47.38;25.40;;;;;;;1.49;96.07;99480.86;1800459;80;21152;-68
2020/12/15 01:40:20;;;;;;;40.43;21.55;;;;;;;1.51;95.87;99481.83;1799850;80;21164;-68
2020/12/15 01:42:48;;;;;;;41.08;21.70;;;;;;;1.49;95.76;99477.44;1800522;80;21137;-66
2020/12/15 01:45:16;;;;;;;39.20;21.57;;;;;;;1.42;95.75;99473.67;1800322;80;21161;-68
2020/12/15 01:47:45;;;;;;;43.13;22.50;;;;;;;1.36;95.90;99474.62;1800634;80;21571;-66
2020/12/15 01:50:14;;;;;;;39.60;21.42;;;;;;;1.32;95.95;99473.95;1800419;80;21160;-67
2020/12/15 01:52:42;;;;;;;40.88;23.07;;;;;;;1.32;96.16;99471.81;1800333;80;21181;-67
2020/12/15 01:55:15;;;;;;;35.60;21.60;;;;;;;1.33;96.23;99477.00;1800294;80;21141;-68
2020/12/15 01:57:54;;;;;;;35.60;20.50;;;;;;;1.33;96.28;99471.91;1798112;80;21568;-67
2020/12/15 02:00:27;;;;;;;36.95;18.48;;;;;;;1.35;96.34;99470.34;1799565;80;21563;-67
2020/12/15 02:03:12;;;;;;;35.20;19.10;;;;;;;1.40;96.41;99478.20;1791832;80;21177;-69
2020/12/15 02:05:48;;;;;;;39.90;19.70;;;;;;;1.39;96.31;99473.51;1752843;80;21652;-70
2020/12/15 02:08:15;;;;;;;36.77;20.43;;;;;;;1.42;96.44;99476.22;1769640;80;21149;-69
2020/12/15 02:10:44;;;;;;;35.70;19.98;;;;;;;1.40;96.08;99476.55;1776473;81;21151;-68
2020/12/15 02:13:16;;;;;;;34.05;19.70;;;;;;;1.34;96.10;99473.66;1795782;80;21628;-67
2020/12/15 02:15:45;;;;;;;30.00;16.93;;;;;;;1.32;96.30;99473.09;1776740;81;21280;-68
2020/12/15 02:18:13;;;;;;;33.10;17.70;;;;;;;1.36;96.48;99470.80;1776771;81;21691;-67
2020/12/15 02:20:45;;;;;;;34.35;17.65;;;;;;;1.38;96.37;99470.50;1796282;80;21691;-68
2020/12/15 02:23:18;;;;;;;38.35;18.95;;;;;;;1.36;96.26;99469.94;1775775;81;21154;-68
2020/12/15 02:25:47;;;;;;;31.17;17.48;;;;;;;1.27;96.22;99463.92;1795803;80;21169;-67
2020/12/15 02:28:15;;;;;;;34.78;18.62;;;;;;;1.24;96.41;99465.03;1776755;81;21553;-67
2020/12/15 02:30:43;;;;;;;31.60;18.27;;;;;;;1.19;96.46;99460.09;1752895;81;21122;-68
2020/12/15 02:33:12;;;;;;;32.73;19.37;;;;;;;1.17;96.79;99452.77;1774407;81;21190;-70
2020/12/15 02:35:42;;;;;;;30.77;18.40;;;;;;;1.18;96.70;99457.95;1796295;80;21564;-68
2020/12/15 02:38:10;;;;;;;31.77;17.23;;;;;;;1.20;96.75;99451.69;1776709;81;21274;-70
2020/12/15 02:40:38;;;;;;;30.37;18.23;;;;;;;1.26;96.92;99455.83;1752822;81;21158;-69
2020/12/15 02:43:12;;;;;;;30.82;18.25;;;;;;;1.32;96.82;99457.42;1796597;80;21295;-70
2020/12/15 02:45:41;;;;;;;27.20;16.00;;;;;;;1.39;96.75;99460.80;1776128;81;21178;-68
2020/12/15 02:48:11;;;;;;;26.30;15.20;;;;;;;1.49;96.83;99466.87;1796382;80;21126;-67
2020/12/15 02:50:39;;;;;;;25.85;15.85;;;;;;;1.54;96.44;99461.17;1776588;81;21139;-69
2020/12/15 02:53:15;;;;;;;26.65;15.58;;;;;;;1.58;96.38;99463.97;1774759;81;21691;-68
2020/12/15 02:55:43;;;;;;;23.67;14.73;;;;;;;1.61;95.96;99456.90;1796706;80;21118;-67
2020/12/15 02:58:12;;;;;;;30.97;16.75;;;;;;;1.60;95.85;99469.12;1776436;81;21165;-67
2020/12/15 03:00:42;;;;;;;27.90;16.02;;;;;;;1.55;95.78;99462.91;1796570;80;21283;-70
2020/12/15 03:03:10;;;;;;;30.68;17.17;;;;;;;1.58;95.82;99468.16;1782497;80;21565;-68
2020/12/15 03:05:39;;;;;;;28.35;16.67;;;;;;;1.65;96.04;99466.43;1805708;79;21626;-67
2020/12/15 03:08:07;;;;;;;28.52;16.90;;;;;;;1.66;95.65;99478.38;1801236;80;21208;-68
2020/12/15 03:10:36;;;;;;;29.55;18.05;;;;;;;1.66;95.57;99468.20;1801038;80;21149;-67
2020/12/15 03:13:05;;;;;;;30.32;17.23;;;;;;;1.66;95.66;99474.56;1796723;80;21318;-68
2020/12/15 03:15:32;;;;;;;23.95;13.85;;;;;;;1.62;95.46;99470.95;1794919;80;21149;-68
2020/12/15 03:18:00;;;;;;;26.85;16.87;;;;;;;1.59;95.47;99475.87;1770181;80;21160;-69
2020/12/15 03:20:29;;;;;;;28.35;15.75;;;;;;;1.61;95.54;99466.67;1795123;80;21695;-66
2020/12/15 03:22:57;;;;;;;29.27;17.98;;;;;;;1.61;95.47;99475.58;1807432;79;21109;-67
2020/12/15 03:25:26;;;;;;;29.27;17.45;;;;;;;1.61;95.40;99481.06;1800959;80;21156;-67
2020/12/15 03:27:55;;;;;;;26.97;16.00;;;;;;;1.56;95.22;99475.72;1801017;80;21112;-69
2020/12/15 03:30:25;;;;;;;31.82;18.27;;;;;;;1.50;95.32;99483.90;1800132;80;21693;-68
2020/12/15 03:32:53;;;;;;;29.45;17.30;;;;;;;1.49;95.53;99479.58;1801021;80;21149;-68
2020/12/15 03:35:20;;;;;;;30.40;17.00;;;;;;;1.54;95.71;99474.75;1801652;80;21149;-67
2020/12/15 03:37:48;;;;;;;35.23;19.45;;;;;;;1.61;95.65;99483.61;1775498;81;21160;-68
2020/12/15 03:40:16;;;;;;;33.85;19.45;;;;;;;1.65;95.46;99490.59;1795566;80;21157;-67
2020/12/15 03:43:03;;;;;;;33.00;17.07;;;;;;;1.66;95.40;99493.23;1795594;80;21157;-68
2020/12/15 03:45:32;;;;;;;30.17;17.07;;;;;;;1.63;95.22;99490.53;1793638;80;21125;-68
2020/12/15 03:48:02;;;;;;;32.73;18.25;;;;;;;1.57;95.09;99491.85;1795391;80;21171;-69
2020/12/15 03:50:31;;;;;;;27.82;16.02;;;;;;;1.54;95.41;99496.78;1795656;80;21545;-68
2020/12/15 03:52:59;;;;;;;36.23;20.85;;;;;;;1.51;95.41;99494.94;1768765;80;21145;-68
2020/12/15 03:55:28;;;;;;;32.03;18.73;;;;;;;1.42;95.42;99493.15;1794544;80;21146;-67
2020/12/15 03:57:57;;;;;;;35.45;19.50;;;;;;;1.37;95.68;99506.00;1794665;80;21874;-67
2020/12/15 04:00:30;;;;;;;35.03;18.90;;;;;;;1.32;95.79;99503.20;1794525;80;21169;-67
2020/12/15 04:02:59;;;;;;;32.85;18.30;;;;;;;1.34;96.14;99505.44;1793045;80;21710;-68
2020/12/15 04:05:28;;;;;;;37.08;20.48;;;;;;;1.37;96.11;99509.41;1793550;80;21291;-69
2020/12/15 04:07:57;;;;;;;33.30;18.48;;;;;;;1.35;96.10;99503.77;1794931;80;21134;-68
2020/12/15 04:10:26;;;;;;;35.33;19.42;;;;;;;1.36;96.25;99510.63;1794966;80;21705;-68
2020/12/15 04:12:57;;;;;;;28.73;18.27;;;;;;;1.33;96.18;99512.59;1794990;80;21584;-69
2020/12/15 04:15:27;;;;;;;29.92;18.37;;;;;;;1.33;96.39;99513.00;1794719;80;21157;-65
2020/12/15 04:17:55;;;;;;;32.20;18.48;;;;;;;1.36;96.55;99517.84;1794912;80;21165;-66
2020/12/15 04:20:23;;;;;;;29.18;16.37;;;;;;;1.42;96.64;99514.36;1794872;80;21188;-66
2020/12/15 04:22:51;;;;;;;28.62;16.93;;;;;;;1.44;96.31;99515.33;1794993;80;21161;-65
2020/12/15 04:25:20;;;;;;;29.30;16.90;;;;;;;1.46;96.21;99520.11;1791434;80;21702;-66
2020/12/15 04:27:49;;;;;;;24.35;14.47;;;;;;;1.46;96.18;99526.88;1770100;80;21120;-66
2020/12/15 04:30:17;;;;;;;25.68;14.83;;;;;;;1.42;96.15;99530.89;1777289;80;21374;-67
2020/12/15 04:32:45;;;;;;;27.87;16.12;;;;;;;1.36;96.14;99526.75;1768435;80;22196;-65
2020/12/15 04:35:14;;;;;;;30.45;16.25;;;;;;;1.37;96.41;99534.84;1783599;80;21217;-66
2020/12/15 04:37:44;;;;;;;28.25;17.07;;;;;;;1.45;96.61;99536.17;1768803;80;21306;-66
2020/12/15 04:40:13;;;;;;;31.12;16.90;;;;;;;1.57;96.72;99537.64;1768598;80;21707;-66
2020/12/15 04:42:46;;;;;;;35.45;18.65;;;;;;;1.65;96.57;99533.84;1761742;81;21305;-67
2020/12/15 04:45:14;;;;;;;25.15;14.50;;;;;;;1.68;96.33;99537.82;1763385;80;21328;-65
2020/12/15 04:47:48;;;;;;;21.45;13.58;;;;;;;1.60;95.94;99542.89;1770563;78;21197;-65
2020/12/15 04:50:20;;;;;;;25.95;14.20;;;;;;;1.48;95.93;99538.02;1772793;80;21167;-67
2020/12/15 04:52:59;;;;;;;25.15;15.58;;;;;;;1.42;96.17;99542.33;1746628;81;21158;-65
2020/12/15 04:55:39;;;;;;;26.97;15.60;;;;;;;1.43;96.25;99537.75;1834745;77;22623;-64
2020/12/15 04:58:09;;;;;;;30.62;16.60;;;;;;;1.45;96.51;99544.17;1793579;79;21174;-67
2020/12/15 05:00:37;;;;;;;26.82;16.05;;;;;;;1.51;96.61;99540.32;1793431;80;21143;-64
2020/12/15 05:03:22;;;;;;;27.40;15.53;;;;;;;1.50;96.18;99547.48;1680811;85;21159;-67
2020/12/15 05:05:51;;;;;;;24.50;14.23;;;;;;;1.46;96.27;99543.00;1680486;85;21245;-68
2020/12/15 05:08:20;;;;;;;25.57;14.98;;;;;;;1.47;96.39;99543.47;1680395;84;21174;-63
2020/12/15 05:10:52;;;;;;;24.43;15.08;;;;;;;1.48;96.41;99547.78;1650678;85;21197;-68
2020/12/15 05:13:30;;;;;;;25.17;14.45;;;;;;;1.48;96.24;99552.88;1649680;84;21624;-66
2020/12/15 05:15:59;;;;;;;26.55;16.00;;;;;;;1.48;96.27;99551.60;1637805;85;21675;-66
2020/12/15 05:18:28;;;;;;;25.75;15.30;;;;;;;1.47;96.33;99551.50;1628682;88;21742;-66
2020/12/15 05:20:58;;;;;;;23.67;14.47;;;;;;;1.49;96.50;99548.25;1679141;85;21712;-64
2020/12/15 05:23:28;;;;;;;26.50;16.20;;;;;;;1.52;96.53;99557.32;1679381;84;22292;-64
2020/12/15 05:26:03;;;;;;;25.37;14.30;;;;;;;1.65;96.84;99561.83;1676961;85;21608;-64
2020/12/15 05:28:33;;;;;;;29.70;16.55;;;;;;;1.74;96.52;99566.17;1674794;85;21206;-65
2020/12/15 05:31:01;;;;;;;26.87;15.45;;;;;;;1.71;96.20;99574.91;1689942;83;21202;-66
2020/12/15 05:33:34;;;;;;;29.63;16.17;;;;;;;1.74;96.30;99576.34;1699784;83;21115;-64
2020/12/15 05:36:22;;;;;;;23.10;13.57;;;;;;;1.80;96.12;99577.94;1764981;81;21385;-64
2020/12/15 05:39:08;;;;;;;23.73;14.47;;;;;;;1.76;95.42;99581.13;1818795;79;21142;-65
2020/12/15 05:41:41;;;;;;;26.62;15.23;;;;;;;1.72;95.60;99581.73;1813979;79;21564;-64
2020/12/15 05:44:13;;;;;;;41.02;22.67;;;;;;;1.70;95.49;99590.95;1820853;78;21137;-64
2020/12/15 05:46:49;;;;;;;67.37;39.03;;;;;;;1.67;95.53;99589.51;1820825;79;21323;-68
2020/12/15 05:49:31;;;;;;;41.85;23.47;;;;;;;1.65;95.46;99590.69;1820924;79;21169;-65
2020/12/15 05:52:19;;;;;;;29.35;17.48;;;;;;;1.62;95.44;99590.92;1820294;79;21201;-65
2020/12/15 05:54:47;;;;;;;28.57;17.12;;;;;;;1.55;95.51;99596.45;1666792;86;21161;-67
2020/12/15 05:57:15;;;;;;;30.37;17.07;;;;;;;1.57;95.76;99599.95;1669512;86;21157;-67
2020/12/15 05:59:42;;;;;;;31.68;18.30;;;;;;;1.58;95.74;99601.70;1667886;86;21172;-64
2020/12/15 06:02:11;;;;;;;29.77;18.73;;;;;;;1.58;95.67;99618.23;1667157;86;21172;-65
2020/12/15 06:04:40;;;;;;;28.25;17.20;;;;;;;1.59;95.79;99610.70;1669513;86;21196;-66
2020/12/15 06:07:10;;;;;;;28.92;16.75;;;;;;;1.52;95.51;99619.64;1668847;86;21174;-65
2020/12/15 06:09:37;;;;;;;28.15;15.90;;;;;;;1.46;95.72;99626.06;1668879;85;21599;-68
2020/12/15 06:12:05;;;;;;;28.32;18.48;;;;;;;1.49;95.96;99627.50;1668996;85;21303;-74
2020/12/15 06:14:33;;;;;;;35.58;19.30;;;;;;;1.51;96.09;99628.06;1669007;86;21176;-75
2020/12/15 06:17:01;;;;;;;32.35;19.60;;;;;;;1.62;96.18;99631.22;1669535;86;21604;-73
2020/12/15 06:19:34;;;;;;;28.65;17.07;;;;;;;1.70;96.06;99636.74;1669073;86;21200;-71
2020/12/15 06:22:03;;;;;;;29.55;17.45;;;;;;;1.73;95.78;99635.27;1669015;86;21184;-70
2020/12/15 06:24:38;;;;;;;35.43;20.30;;;;;;;1.75;95.60;99632.79;1668211;86;21660;-69
2020/12/15 06:29:51;;;;;;;32.80;18.50;;;;;;;1.82;95.50;99629.80;1853584;77;22245;-72
2020/12/15 06:32:19;;;;;;;30.02;18.05;;;;;;;1.73;95.19;99635.64;1826246;78;21264;-70
2020/12/15 06:34:49;;;;;;;30.68;18.35;;;;;;;1.70;95.42;99641.83;1758949;81;21134;-71
2020/12/15 06:37:23;;;;;;;34.27;21.52;;;;;;;1.68;95.54;99643.41;1758821;81;21130;-72
2020/12/15 06:40:01;;;;;;;39.05;25.68;;;;;;;1.70;95.56;99655.42;1777171;81;21577;-71
2020/12/15 06:42:30;;;;;;;47.83;31.07;;;;;;;1.78;95.58;99648.26;1758945;81;21340;-73
2020/12/15 06:45:07;;;;;;;43.73;28.50;;;;;;;1.80;95.41;99653.02;1759000;81;21154;-75
2020/12/15 06:47:36;;;;;;;32.75;20.45;;;;;;;1.85;95.50;99655.42;1777172;80;21724;-72
2020/12/15 06:50:17;;;;;;;31.73;17.82;;;;;;;1.90;95.14;99663.33;1758921;81;21162;-73
2020/12/15 06:52:46;;;;;;;30.32;18.07;;;;;;;1.81;95.11;99672.60;1758894;81;21295;-74
2020/12/15 06:55:14;;;;;;;32.60;20.17;;;;;;;1.73;95.16;99669.62;1776881;80;21174;-68
2020/12/15 06:57:42;;;;;;;32.93;18.95;;;;;;;1.72;95.42;99676.75;1758804;81;21118;-72
2020/12/15 07:00:12;;;;;;;36.10;20.30;;;;;;;1.68;95.29;99683.74;1758788;81;21169;-74
2020/12/15 07:02:46;;;;;;;34.33;20.60;;;;;;;1.64;95.33;99688.56;1777158;81;21163;-71
2020/12/15 07:05:26;;;;;;;36.20;20.90;;;;;;;1.63;95.62;99686.42;1757959;81;21162;-73
2020/12/15 07:07:58;;;;;;;35.80;19.02;;;;;;;1.66;95.66;99686.98;1758706;81;21158;-69
2020/12/15 07:10:28;;;;;;;;;;;;;;;1.66;95.62;99683.17;1778431;81;21561;-70
2020/12/15 07:12:59;;;;;;;34.05;20.05;;;;;;;1.68;95.66;99679.02;1757213;82;20149;-74
2020/12/15 07:15:29;;;;;;;43.73;24.80;;;;;;;1.72;95.67;99684.38;1758995;81;21174;-70
2020/12/15 07:17:58;;;;;;;;;;;;;;;1.80;95.70;99684.82;1761663;81;21569;-73
2020/12/15 07:20:26;;;;;;;39.03;22.87;;;;;;;1.89;95.67;99682.81;1758912;81;20158;-74
2020/12/15 07:22:54;;;;;;;38.50;20.65;;;;;;;2.00;95.65;99673.63;1777144;81;21534;-71
2020/12/15 07:25:21;;;;;;;35.17;21.25;;;;;;;2.04;95.50;99680.27;1758829;81;21232;-71
2020/12/15 07:27:51;;;;;;;35.78;19.50;;;;;;;2.13;95.58;99679.88;1758094;81;21194;-69
2020/12/15 07:30:21;;;;;;;30.70;17.92;;;;;;;2.23;95.29;99685.97;1820656;79;21546;-70
2020/12/15 07:32:50;;;;;;;28.73;18.00;;;;;;;2.22;94.79;99677.86;1820748;79;21320;-74
2020/12/15 07:35:23;;;;;;;34.55;18.87;;;;;;;2.15;94.56;99679.17;1820342;79;21497;-73
2020/12/15 07:37:56;;;;;;;31.27;18.35;;;;;;;2.07;94.47;99683.38;1819750;79;21095;-72
2020/12/15 07:40:31;;;;;;;287.30;83.78;;;;;;;1.97;94.49;99688.34;1819953;78;21299;-71
2020/12/15 07:43:02;;;;;;;363.45;108.63;;;;;;;1.95;94.94;99688.23;1750169;82;21131;-72
2020/12/15 07:45:33;;;;;;;267.40;84.35;;;;;;;2.07;95.22;99683.38;1819832;79;21597;-72
2020/12/15 07:48:06;;;;;;;153.70;53.48;;;;;;;2.21;95.04;99690.50;1750332;82;21569;-74
2020/12/15 07:50:34;;;;;;;224.75;80.22;;;;;;;2.26;94.79;99692.50;1819864;79;21163;-71
2020/12/15 07:53:11;;;;;;;179.35;66.65;;;;;;;2.33;94.72;99685.69;1750259;82;21244;-75
2020/12/15 07:55:40;;;;;;;143.97;58.50;;;;;;;2.41;94.53;99692.88;1819964;79;21874;-70
2020/12/15 07:58:16;;;;;;;130.95;58.70;;;;;;;2.43;94.35;99690.02;1750637;82;21589;-74
2020/12/15 08:00:46;;;;;;;155.15;60.43;;;;;;;2.47;94.21;99690.65;1820414;79;21268;-74
2020/12/15 08:03:18;;;;;;;153.93;65.05;;;;;;;2.51;94.09;99698.55;1820206;79;21256;-69
2020/12/15 08:08:27;;;;;;;111.65;56.95;;;;;;;2.63;93.77;99693.66;1853852;77;22170;-72
2020/12/15 08:10:57;;;;;;;94.85;42.85;;;;;;;2.59;93.69;99696.02;1826122;78;21111;-72
2020/12/15 08:13:26;;;;;;;94.28;44.85;;;;;;;2.64;93.73;99697.95;1826230;78;21142;-70
2020/12/15 08:15:54;;;;;;;62.73;32.88;;;;;;;2.69;93.74;99702.90;1759341;81;21162;-72
2020/12/15 08:18:24;;;;;;;46.28;26.33;;;;;;;2.78;93.70;99700.86;1759261;81;21284;-73
2020/12/15 08:20:55;;;;;;;49.63;27.42;;;;;;;2.77;92.93;99705.08;1777404;80;21337;-70
2020/12/15 08:23:24;;;;;;;41.83;24.80;;;;;;;2.77;93.05;99705.08;1759044;81;21261;-72
2020/12/15 08:25:57;;;;;;;38.17;20.60;;;;;;;2.80;92.90;99707.79;1730223;81;21154;-70
2020/12/15 08:28:26;;;;;;;48.05;24.75;;;;;;;2.77;92.76;99703.81;1777384;80;21146;-68
2020/12/15 08:30:56;;;;;;;39.45;20.92;;;;;;;2.75;92.77;99707.94;1759245;81;21134;-74
2020/12/15 08:33:28;;;;;;;46.75;24.92;;;;;;;2.69;92.59;99703.77;1759327;81;21146;-73
2020/12/15 08:35:58;;;;;;;42.58;23.87;;;;;;;2.62;92.53;99705.53;1777299;80;21119;-71
2020/12/15 08:38:27;;;;;;;44.05;23.50;;;;;;;2.61;92.68;99711.40;1759403;81;21162;-72
2020/12/15 08:41:02;;;;;;;49.25;26.65;;;;;;;2.61;92.71;99711.40;1759141;81;21146;-70
2020/12/15 08:43:31;;;;;;;42.13;24.90;;;;;;;2.65;92.85;99714.61;1759189;81;21288;-69
2020/12/15 08:46:01;;;;;;;49.30;25.92;;;;;;;2.64;92.63;99715.38;1777515;81;21601;-68
2020/12/15 08:48:30;;;;;;;50.45;27.40;;;;;;;2.59;92.66;99712.98;1759394;81;21134;-72
2020/12/15 08:51:00;;;;;;;43.23;24.57;;;;;;;2.59;92.78;99715.12;1759196;81;21361;-70
2020/12/15 08:53:31;;;;;;;48.30;25.25;;;;;;;2.64;93.04;99716.66;1750220;81;21166;-70
2020/12/15 08:55:59;;;;;;;49.63;27.13;;;;;;;2.75;93.00;99718.13;1759082;81;21174;-69
2020/12/15 08:58:27;;;;;;;50.60;26.40;;;;;;;2.79;92.90;99720.03;1759139;81;21150;-71
2020/12/15 09:00:56;;;;;;;50.05;27.42;;;;;;;2.83;92.67;99717.27;1777187;81;21134;-72
2020/12/15 09:03:26;;;;;;;52.80;27.02;;;;;;;2.88;92.74;99713.70;1759029;81;21142;-69
2020/12/15 09:05:58;;;;;;;43.40;22.85;;;;;;;2.88;92.66;99712.42;1759553;81;21158;-70
2020/12/15 09:08:28;;;;;;;40.73;22.58;;;;;;;2.95;92.59;99714.11;1768337;81;21187;-71
2020/12/15 09:10:58;;;;;;;43.40;23.65;;;;;;;2.95;92.58;99714.48;1751676;82;21561;-68
2020/12/15 09:13:27;;;;;;;37.00;21.42;;;;;;;2.91;92.39;99709.63;1820749;79;21173;-68
2020/12/15 09:15:58;;;;;;;39.33;22.40;;;;;;;2.89;92.37;99709.94;1751331;82;21592;-69
2020/12/15 09:18:35;;;;;;;35.70;19.62;;;;;;;2.81;92.17;99709.53;1820754;79;21157;-71
2020/12/15 09:21:16;;;;;;;37.93;19.57;;;;;;;2.71;92.04;99712.37;1820315;79;21158;-70
2020/12/15 09:23:54;;;;;;;35.95;21.30;;;;;;;2.65;92.53;99704.82;1820377;79;21106;-70
2020/12/15 09:26:25;;;;;;;38.35;20.95;;;;;;;2.64;92.49;99701.37;1750747;82;21321;-71
2020/12/15 09:28:54;;;;;;;34.70;19.82;;;;;;;2.69;92.61;99710.14;1820396;79;21147;-70
2020/12/15 09:31:23;;;;;;;41.68;22.60;;;;;;;2.64;92.36;99706.46;1820485;79;21133;-69
2020/12/15 09:33:52;;;;;;;38.75;22.10;;;;;;;2.64;92.49;99705.19;1820268;79;21383;-69
2020/12/15 09:36:23;;;;;;;36.17;21.93;;;;;;;2.71;92.91;99711.51;1820288;79;21545;-70
2020/12/15 09:38:51;;;;;;;;;;;;;;;2.78;92.86;99708.09;1753264;82;21155;-72
2020/12/15 09:41:20;;;;;;;40.12;21.82;;;;;;;2.91;92.96;99714.73;1750747;82;20420;-69
2020/12/15 09:43:48;;;;;;;41.18;24.77;;;;;;;3.06;93.14;99707.42;1820310;79;21138;-71
2020/12/15 09:46:18;;;;;;;41.45;23.62;;;;;;;3.23;93.16;99712.61;1750713;82;21280;-70
2020/12/15 09:48:47;;;;;;;44.45;23.87;;;;;;;3.28;92.26;99712.82;1820333;79;21133;-71
2020/12/15 09:51:16;;;;;;;39.90;23.25;;;;;;;3.14;91.76;99709.56;1820248;79;21115;-69
2020/12/15 09:53:44;;;;;;;37.35;20.88;;;;;;;3.05;91.95;99707.80;1750421;82;21162;-73
2020/12/15 09:56:17;;;;;;;41.02;22.22;;;;;;;3.00;91.73;99711.77;1819906;79;21134;-72
2020/12/15 09:58:47;;;;;;;45.60;23.85;;;;;;;2.94;92.01;99707.23;1750389;82;21127;-72
2020/12/15 10:01:16;;;;;;;38.20;22.13;;;;;;;2.94;92.01;99711.06;1819341;79;21273;-70
2020/12/15 10:03:45;;;;;;;40.50;24.35;;;;;;;2.89;92.04;99712.48;1820086;79;21150;-72
2020/12/15 10:06:17;;;;;;;35.17;20.08;;;;;;;2.92;92.09;99707.95;1820297;79;21154;-68
2020/12/15 10:08:46;;;;;;;35.65;19.98;;;;;;;2.92;92.14;99704.13;1820072;79;21596;-69
2020/12/15 10:11:16;;;;;;;38.50;21.93;;;;;;;2.92;91.97;99699.90;1750381;82;21171;-70
2020/12/15 10:13:44;;;;;;;42.17;23.15;;;;;;;2.94;92.29;99701.27;1820223;79;21134;-71
2020/12/15 10:16:13;;;;;;;37.85;23.18;;;;;;;3.06;92.60;99702.33;1820365;79;21123;-69
2020/12/15 10:18:42;;;;;;;42.27;24.90;;;;;;;3.23;92.95;99693.48;1819943;79;21158;-69
2020/12/15 10:21:10;;;;;;;40.55;23.38;;;;;;;3.38;92.66;99698.88;1819893;79;21158;-69
2020/12/15 10:23:39;;;;;;;41.55;24.10;;;;;;;3.43;91.95;99703.81;1820053;79;21139;-71
2020/12/15 10:26:07;;;;;;;40.03;24.25;;;;;;;3.45;92.32;99699.27;1819941;79;21165;-72
2020/12/15 10:28:36;;;;;;;42.65;25.43;;;;;;;3.54;92.43;99706.94;1750463;82;21175;-71
2020/12/15 10:31:05;;;;;;;41.08;24.02;;;;;;;3.60;92.05;99711.93;1819923;79;21146;-71
2020/12/15 10:33:33;;;;;;;47.85;26.27;;;;;;;3.61;91.82;99701.31;1820148;79;21264;-72
2020/12/15 10:36:04;;;;;;;50.88;28.38;;;;;;;3.60;91.53;99708.09;1750654;82;21162;-71
2020/12/15 10:38:33;;;;;;;53.05;28.87;;;;;;;3.65;91.52;99710.48;1821466;79;21131;-69
2020/12/15 10:41:01;;;;;;;55.67;29.82;;;;;;;3.57;91.36;99709.23;1822236;79;21166;-67
2020/12/15 10:43:29;;;;;;;55.85;30.82;;;;;;;3.56;91.72;99703.66;1822103;79;21592;-68
2020/12/15 10:45:57;;;;;;;60.52;30.05;;;;;;;3.54;91.48;99705.25;1820161;79;21146;-70
2020/12/15 10:48:25;;;;;;;55.10;31.70;;;;;;;3.41;91.03;99702.84;1750250;82;21147;-71
2020/12/15 10:50:53;;;;;;;57.25;29.50;;;;;;;3.29;91.14;99706.07;1819659;79;21142;-71
2020/12/15 10:53:21;;;;;;;52.50;28.00;;;;;;;3.24;91.66;99704.55;1819871;79;21142;-72
2020/12/15 10:55:50;;;;;;;48.90;26.85;;;;;;;3.24;91.37;99707.97;1819842;79;21194;-71
2020/12/15 10:58:18;;;;;;;57.17;29.35;;;;;;;3.15;91.51;99709.16;1819822;79;21150;-72
2020/12/15 11:00:46;;;;;;;44.55;25.37;;;;;;;3.05;91.53;99706.52;1819617;79;21158;-71
2020/12/15 11:03:13;;;;;;;44.27;24.37;;;;;;;3.00;91.56;99710.50;1819627;79;21284;-69
2020/12/15 11:05:41;;;;;;;47.78;24.60;;;;;;;2.90;91.90;99717.18;1819942;79;21545;-74
2020/12/15 11:08:08;;;;;;;57.48;27.58;;;;;;;2.86;92.11;99719.11;1815499;79;21119;-73
2020/12/15 11:10:36;;;;;;;49.25;25.90;;;;;;;2.88;92.58;99718.39;1742108;82;21613;-70
2020/12/15 11:13:04;;;;;;;53.90;28.10;;;;;;;2.97;92.70;99721.81;1811130;79;21364;-73
2020/12/15 11:15:33;;;;;;;49.67;26.65;;;;;;;2.94;92.35;99719.98;1811059;79;21139;-73
2020/12/15 11:18:00;;;;;;;52.30;28.00;;;;;;;2.95;92.43;99717.03;1742371;82;21166;-69
2020/12/15 11:20:28;;;;;;;45.88;24.18;;;;;;;2.95;92.49;99714.48;1811080;79;21166;-68
2020/12/15 11:22:56;;;;;;;51.88;27.05;;;;;;;2.92;92.28;99720.70;1742376;82;21554;-71
2020/12/15 11:25:24;;;;;;;55.63;27.98;;;;;;;2.77;92.44;99717.83;1811076;79;21135;-71
2020/12/15 11:27:51;;;;;;;49.55;27.37;;;;;;;2.77;92.83;99716.55;1742340;82;21155;-70
2020/12/15 11:30:19;;;;;;;50.10;26.35;;;;;;;2.85;92.73;99722.43;1811315;79;21590;-73
2020/12/15 11:32:48;;;;;;;50.55;25.77;;;;;;;2.77;92.54;99725.47;1742331;82;21158;-71
2020/12/15 11:35:16;;;;;;;49.88;27.58;;;;;;;2.67;92.73;99727.05;1811190;79;21147;-70
2020/12/15 11:37:44;;;;;;;47.40;25.82;;;;;;;2.64;93.07;99729.40;1742382;82;21574;-71
2020/12/15 11:40:13;;;;;;;51.28;28.10;;;;;;;2.68;93.29;99727.52;1811234;79;21158;-69
2020/12/15 11:42:41;;;;;;;47.85;26.00;;;;;;;2.76;93.35;99727.92;1742285;82;21165;-72
2020/12/15 11:45:09;;;;;;;40.33;22.80;;;;;;;2.80;93.04;99731.12;1811808;79;21214;-71